Jaguar — A8XZ3 — position and weather

sailwx.info

Track history (hours):
 
Tides and Currents Weather Stations Pressure Air Temp Water Temp Dewpoint Dewpoint Depression Visibility Wind Speed Wind Dir Waves Ship Positions

Jaguar

Last reported at 2018-Jun-18 13:32 UTC. Time now 2018-Jun-22 20:25 UTC.
Position N 40°13' E 003°16'.

Length 157 m; draft 7.9 m.

Type: Cargo ship. MMSI: 636015001.

Date/timePositionNaut miles runAvg speedWind from/ knotsBaromVisibWave heightAir tempDewpointWater temp
2018-Jun-18 13:32N 40°13' E 003°16'114.4
2018-Jun-18 13:28N 40°14' E 003°15'814.2
2018-Jun-18 12:56N 40°20' E 003°09'614.3
2018-Jun-18 12:31N 40°25' E 003°04'4814.4
2018-Jun-18 09:10N 41°03' E 002°25'414.6
2018-Jun-18 08:52N 41°06' E 002°21'514.3
2018-Jun-18 08:30N 41°10' E 002°17'714.3
2018-Jun-18 08:00N 41°16' E 002°12'3 6.6
2018-Jun-18 07:30N 41°18' E 002°09'0 0.3
2018-Jun-18 07:00N 41°18' E 002°09'0 0.0
2018-Jun-18 06:30N 41°18' E 002°09'0 0.0
2018-Jun-18 06:00N 41°18' E 002°09'0 0.1
2018-Jun-18 05:30N 41°18' E 002°09'0 0.0
2018-Jun-18 05:00N 41°18' E 002°09'0 0.0
2018-Jun-18 04:30N 41°18' E 002°09'0 0.0
2018-Jun-18 04:00N 41°18' E 002°09'0 0.0
2018-Jun-18 03:30N 41°18' E 002°09'0 0.0
2018-Jun-18 03:00N 41°18' E 002°09'0 0.0
2018-Jun-18 02:30N 41°18' E 002°09'0 0.0
2018-Jun-18 02:00N 41°18' E 002°09'0 0.0
2018-Jun-18 01:30N 41°18' E 002°09'0 0.0
2018-Jun-18 01:00N 41°18' E 002°09'0 0.0
2018-Jun-18 00:30N 41°18' E 002°09'0 0.0
2018-Jun-18 00:00N 41°18' E 002°09'0 0.0
2018-Jun-17 23:30N 41°18' E 002°09'0 0.0
2018-Jun-17 23:00N 41°18' E 002°09'0 0.0
2018-Jun-17 22:30N 41°18' E 002°09'0 0.0
2018-Jun-17 22:00N 41°18' E 002°09'0 0.0
2018-Jun-17 21:30N 41°18' E 002°09'0 0.0
2018-Jun-17 21:00N 41°18' E 002°09'0 0.0
2018-Jun-17 20:30N 41°18' E 002°09'0 0.0
2018-Jun-17 20:00N 41°18' E 002°09'0 0.0
2018-Jun-17 19:30N 41°18' E 002°09'0 0.0
2018-Jun-17 19:00N 41°18' E 002°09'0 0.0
2018-Jun-17 18:30N 41°18' E 002°09'0 0.0
2018-Jun-17 18:00N 41°18' E 002°09'1 1.9
2018-Jun-17 17:30N 41°19' E 002°10'3 6.2
2018-Jun-17 17:00N 41°17' E 002°12'1 2.5
2018-Jun-17 16:31N 41°17' E 002°14'2 4.0
2018-Jun-17 16:00N 41°19' E 002°16'612.1
2018-Jun-17 15:31N 41°22' E 002°23'160 9.7
2018-Jun-16 22:58N 43°08' E 005°05'612.5
2018-Jun-16 22:29N 43°13' E 005°09'611.8
2018-Jun-16 21:59N 43°18' E 005°12'510.6
2018-Jun-16 21:30N 43°21' E 005°19'1 0.1
2018-Jun-16 11:57N 43°21' E 005°20'2 5.4
2018-Jun-16 11:30N 43°20' E 005°17'611.2
2018-Jun-16 11:00N 43°16' E 005°11'17613.6
2018-Jun-15 22:00N 41°05' E 002°33'714.5
2018-Jun-15 21:30N 40°59' E 002°26'3115.0
2018-Jun-15 19:27N 40°37' E 001°59'1715.2
2018-Jun-15 18:19N 40°25' E 001°42'515.7
2018-Jun-15 18:00N 40°22' E 001°37'10015.2
2018-Jun-15 11:24N 39°27' W 000°12'512.6
2018-Jun-15 11:00N 39°26' W 000°18'1 1.7
2018-Jun-15 10:28N 39°26' W 000°19'0 0.0
2018-Jun-15 06:22N 39°26' W 000°19'0 0.0
2018-Jun-15 04:16N 39°26' W 000°19'0 0.0
2018-Jun-15 03:58N 39°26' W 000°19'0 0.0
2018-Jun-15 03:28N 39°26' W 000°19'0 0.0
2018-Jun-15 02:52N 39°26' W 000°19'0 0.0
2018-Jun-15 00:43N 39°26' W 000°19'0 0.8
2018-Jun-15 00:31N 39°26' W 000°19'3 5.1
2018-Jun-15 00:00N 39°24' W 000°17'1 0.1
2018-Jun-14 13:51N 39°24' W 000°16'72 8.9
2018-Jun-14 05:43N 38°22' E 000°31'511.6
2018-Jun-14 05:16N 38°17' E 000°31'311.8
2018-Jun-14 05:00N 38°14' E 000°30'611.8
2018-Jun-14 04:30N 38°08' E 000°28'2411.8
2018-Jun-14 02:29N 37°44' E 000°24'612.0
2018-Jun-14 02:00N 37°39' E 000°23'611.9
2018-Jun-14 01:30N 37°33' E 000°22'611.7
2018-Jun-14 01:00N 37°27' E 000°20'611.6
2018-Jun-14 00:30N 37°21' E 000°19'611.4
2018-Jun-14 00:00N 37°16' E 000°18'611.3
2018-Jun-13 23:30N 37°10' E 000°17'611.4
2018-Jun-13 23:00N 37°04' E 000°17'611.3
2018-Jun-13 22:30N 36°59' E 000°16'711.4
2018-Jun-13 21:55N 36°52' E 000°14'511.6
2018-Jun-13 21:30N 36°48' E 000°12'611.8
2018-Jun-13 21:00N 36°42' E 000°11'611.9
2018-Jun-13 20:30N 36°36' E 000°10'611.8
2018-Jun-13 20:00N 36°30' E 000°09'611.8
2018-Jun-13 19:30N 36°24' E 000°08'611.9
2018-Jun-13 19:00N 36°18' E 000°07'  
Track history (hours):
 
Tides and Currents Weather Stations Pressure Air Temp Water Temp Dewpoint Dewpoint Depression Visibility Wind Speed Wind Dir Waves Ship Positions

Jaguar

Last reported at 2018-Jun-18 13:32 UTC. Time now 2018-Jun-22 20:25 UTC.
Position N 40°13' E 003°16'.

Length 157 m; draft 7.9 m.

Type: Cargo ship. MMSI: 636015001.

Date/timePositionNaut miles runAvg speedWind from/ knotsBaromVisibWave heightAir tempDewpointWater temp
2018-Jun-18 13:32N 40°13' E 003°16'114.4
2018-Jun-18 13:28N 40°14' E 003°15'814.2
2018-Jun-18 12:56N 40°20' E 003°09'614.3
2018-Jun-18 12:31N 40°25' E 003°04'4814.4
2018-Jun-18 09:10N 41°03' E 002°25'414.6
2018-Jun-18 08:52N 41°06' E 002°21'514.3
2018-Jun-18 08:30N 41°10' E 002°17'714.3
2018-Jun-18 08:00N 41°16' E 002°12'3 6.6
2018-Jun-18 07:30N 41°18' E 002°09'0 0.3
2018-Jun-18 07:00N 41°18' E 002°09'0 0.0
2018-Jun-18 06:30N 41°18' E 002°09'0 0.0
2018-Jun-18 06:00N 41°18' E 002°09'0 0.1
2018-Jun-18 05:30N 41°18' E 002°09'0 0.0
2018-Jun-18 05:00N 41°18' E 002°09'0 0.0
2018-Jun-18 04:30N 41°18' E 002°09'0 0.0
2018-Jun-18 04:00N 41°18' E 002°09'0 0.0
2018-Jun-18 03:30N 41°18' E 002°09'0 0.0
2018-Jun-18 03:00N 41°18' E 002°09'0 0.0
2018-Jun-18 02:30N 41°18' E 002°09'0 0.0
2018-Jun-18 02:00N 41°18' E 002°09'0 0.0
2018-Jun-18 01:30N 41°18' E 002°09'0 0.0
2018-Jun-18 01:00N 41°18' E 002°09'0 0.0
2018-Jun-18 00:30N 41°18' E 002°09'0 0.0
2018-Jun-18 00:00N 41°18' E 002°09'0 0.0
2018-Jun-17 23:30N 41°18' E 002°09'0 0.0
2018-Jun-17 23:00N 41°18' E 002°09'0 0.0
2018-Jun-17 22:30N 41°18' E 002°09'0 0.0
2018-Jun-17 22:00N 41°18' E 002°09'0 0.0
2018-Jun-17 21:30N 41°18' E 002°09'0 0.0
2018-Jun-17 21:00N 41°18' E 002°09'0 0.0
2018-Jun-17 20:30N 41°18' E 002°09'0 0.0
2018-Jun-17 20:00N 41°18' E 002°09'0 0.0
2018-Jun-17 19:30N 41°18' E 002°09'0 0.0
2018-Jun-17 19:00N 41°18' E 002°09'0 0.0
2018-Jun-17 18:30N 41°18' E 002°09'0 0.0
2018-Jun-17 18:00N 41°18' E 002°09'1 1.9
2018-Jun-17 17:30N 41°19' E 002°10'3 6.2
2018-Jun-17 17:00N 41°17' E 002°12'1 2.5
2018-Jun-17 16:31N 41°17' E 002°14'2 4.0
2018-Jun-17 16:00N 41°19' E 002°16'612.1
2018-Jun-17 15:31N 41°22' E 002°23'160 9.7
2018-Jun-16 22:58N 43°08' E 005°05'612.5
2018-Jun-16 22:29N 43°13' E 005°09'611.8
2018-Jun-16 21:59N 43°18' E 005°12'510.6
2018-Jun-16 21:30N 43°21' E 005°19'1 0.1
2018-Jun-16 11:57N 43°21' E 005°20'2 5.4
2018-Jun-16 11:30N 43°20' E 005°17'611.2
2018-Jun-16 11:00N 43°16' E 005°11'17613.6
2018-Jun-15 22:00N 41°05' E 002°33'714.5
2018-Jun-15 21:30N 40°59' E 002°26'3115.0
2018-Jun-15 19:27N 40°37' E 001°59'1715.2
2018-Jun-15 18:19N 40°25' E 001°42'515.7
2018-Jun-15 18:00N 40°22' E 001°37'10015.2
2018-Jun-15 11:24N 39°27' W 000°12'512.6
2018-Jun-15 11:00N 39°26' W 000°18'1 1.7
2018-Jun-15 10:28N 39°26' W 000°19'0 0.0
2018-Jun-15 06:22N 39°26' W 000°19'0 0.0
2018-Jun-15 04:16N 39°26' W 000°19'0 0.0
2018-Jun-15 03:58N 39°26' W 000°19'0 0.0
2018-Jun-15 03:28N 39°26' W 000°19'0 0.0
2018-Jun-15 02:52N 39°26' W 000°19'0 0.0
2018-Jun-15 00:43N 39°26' W 000°19'0 0.8
2018-Jun-15 00:31N 39°26' W 000°19'3 5.1
2018-Jun-15 00:00N 39°24' W 000°17'1 0.1
2018-Jun-14 13:51N 39°24' W 000°16'72 8.9
2018-Jun-14 05:43N 38°22' E 000°31'511.6
2018-Jun-14 05:16N 38°17' E 000°31'311.8
2018-Jun-14 05:00N 38°14' E 000°30'611.8
2018-Jun-14 04:30N 38°08' E 000°28'2411.8
2018-Jun-14 02:29N 37°44' E 000°24'612.0
2018-Jun-14 02:00N 37°39' E 000°23'611.9
2018-Jun-14 01:30N 37°33' E 000°22'611.7
2018-Jun-14 01:00N 37°27' E 000°20'611.6
2018-Jun-14 00:30N 37°21' E 000°19'611.4
2018-Jun-14 00:00N 37°16' E 000°18'611.3
2018-Jun-13 23:30N 37°10' E 000°17'611.4
2018-Jun-13 23:00N 37°04' E 000°17'611.3
2018-Jun-13 22:30N 36°59' E 000°16'711.4
2018-Jun-13 21:55N 36°52' E 000°14'511.6
2018-Jun-13 21:30N 36°48' E 000°12'611.8
2018-Jun-13 21:00N 36°42' E 000°11'611.9
2018-Jun-13 20:30N 36°36' E 000°10'611.8
2018-Jun-13 20:00N 36°30' E 000°09'611.8
2018-Jun-13 19:30N 36°24' E 000°08'611.9
2018-Jun-13 19:00N 36°18' E 000°07'  

Dump ship's entire track history